sensor_id;sensor_type;location;lat;lon;timestamp;pressure;altitude;pressure_sealevel;temperature;humidity
54512;BME280;40419;47.438;19.026;2023-08-01T00:00:51;99254.16;;;17.94;93.47
54512;BME280;40419;47.438;19.026;2023-08-01T00:03:19;99258.09;;;17.70;94.61
54512;BME280;40419;47.438;19.026;2023-08-01T00:05:45;99251.25;;;17.68;97.12
54512;BME280;40419;47.438;19.026;2023-08-01T00:08:11;99251.06;;;17.85;95.06
54512;BME280;40419;47.438;19.026;2023-08-01T00:10:43;99256.59;;;17.90;93.91
54512;BME280;40419;47.438;19.026;2023-08-01T00:13:13;99257.38;;;17.43;96.40
54512;BME280;40419;47.438;19.026;2023-08-01T00:15:41;99256.47;;;17.32;98.02
54512;BME280;40419;47.438;19.026;2023-08-01T00:18:08;99253.84;;;17.47;97.60
54512;BME280;40419;47.438;19.026;2023-08-01T00:20:37;99260.94;;;17.43;96.77
54512;BME280;40419;47.438;19.026;2023-08-01T00:23:11;99259.59;;;17.46;96.17
54512;BME280;40419;47.438;19.026;2023-08-01T00:25:36;99259.03;;;17.44;97.29
54512;BME280;40419;47.438;19.026;2023-08-01T00:28:06;99253.59;;;17.49;96.22
54512;BME280;40419;47.438;19.026;2023-08-01T00:30:35;99255.81;;;17.57;95.20
54512;BME280;40419;47.438;19.026;2023-08-01T00:33:00;99255.44;;;17.43;94.56
54512;BME280;40419;47.438;19.026;2023-08-01T00:35:26;99258.94;;;17.33;98.20
54512;BME280;40419;47.438;19.026;2023-08-01T00:37:53;99256.84;;;16.86;100.00
54512;BME280;40419;47.438;19.026;2023-08-01T00:40:19;99262.81;;;17.05;100.00
54512;BME280;40419;47.438;19.026;2023-08-01T00:42:44;99257.19;;;17.17;100.00
54512;BME280;40419;47.438;19.026;2023-08-01T00:45:10;99249.84;;;17.23;99.11
54512;BME280;40419;47.438;19.026;2023-08-01T00:47:36;99247.69;;;17.30;98.38
54512;BME280;40419;47.438;19.026;2023-08-01T00:50:02;99243.00;;;17.25;98.58
54512;BME280;40419;47.438;19.026;2023-08-01T00:52:28;99230.78;;;17.00;100.00
54512;BME280;40419;47.438;19.026;2023-08-01T00:54:54;99231.16;;;17.14;100.00
54512;BME280;40419;47.438;19.026;2023-08-01T00:57:20;99229.56;;;17.18;99.85
54512;BME280;40419;47.438;19.026;2023-08-01T00:59:50;99225.84;;;16.97;100.00
54512;BME280;40419;47.438;19.026;2023-08-01T01:02:18;99220.50;;;16.86;100.00
54512;BME280;40419;47.438;19.026;2023-08-01T01:04:44;99224.75;;;16.98;100.00
54512;BME280;40419;47.438;19.026;2023-08-01T01:07:16;99215.44;;;16.99;100.00
54512;BME280;40419;47.438;19.026;2023-08-01T01:09:47;99208.16;;;17.10;100.00
54512;BME280;40419;47.438;19.026;2023-08-01T01:12:15;99207.88;;;17.07;100.00
54512;BME280;40419;47.438;19.026;2023-08-01T01:14:40;99216.03;;;17.02;100.00
54512;BME280;40419;47.438;19.026;2023-08-01T01:17:11;99218.59;;;16.86;100.00
54512;BME280;40419;47.438;19.026;2023-08-01T01:19:37;99212.28;;;16.80;100.00
54512;BME280;40419;47.438;19.026;2023-08-01T01:22:12;99205.31;;;16.95;100.00
54512;BME280;40419;47.438;19.026;2023-08-01T01:24:39;99202.63;;;17.00;100.00
54512;BME280;40419;47.438;19.026;2023-08-01T01:27:09;99204.09;;;16.86;100.00
54512;BME280;40419;47.438;19.026;2023-08-01T01:29:38;99202.97;;;16.81;100.00
54512;BME280;40419;47.438;19.026;2023-08-01T01:32:09;99191.88;;;16.88;100.00
54512;BME280;40419;47.438;19.026;2023-08-01T01:34:38;99192.47;;;16.95;100.00
54512;BME280;40419;47.438;19.026;2023-08-01T01:37:08;99195.50;;;16.99;100.00
54512;BME280;40419;47.438;19.026;2023-08-01T01:39:36;99195.41;;;16.89;100.00
54512;BME280;40419;47.438;19.026;2023-08-01T01:42:04;99189.78;;;16.73;100.00
54512;BME280;40419;47.438;19.026;2023-08-01T01:44:34;99198.16;;;16.61;100.00
54512;BME280;40419;47.438;19.026;2023-08-01T01:47:05;99194.09;;;16.64;100.00
54512;BME280;40419;47.438;19.026;2023-08-01T01:49:33;99198.53;;;17.03;100.00
54512;BME280;40419;47.438;19.026;2023-08-01T01:52:01;99202.31;;;16.96;100.00
54512;BME280;40419;47.438;19.026;2023-08-01T01:54:29;99192.94;;;16.87;100.00
54512;BME280;40419;47.438;19.026;2023-08-01T01:56:57;99188.66;;;16.69;100.00
54512;BME280;40419;47.438;19.026;2023-08-01T01:59:25;99179.41;;;16.75;100.00
54512;BME280;40419;47.438;19.026;2023-08-01T02:01:53;99180.72;;;16.68;100.00
54512;BME280;40419;47.438;19.026;2023-08-01T02:04:23;99170.53;;;16.58;100.00
54512;BME280;40419;47.438;19.026;2023-08-01T02:06:53;99172.41;;;16.57;100.00
54512;BME280;40419;47.438;19.026;2023-08-01T02:09:22;99170.66;;;16.73;100.00
54512;BME280;40419;47.438;19.026;2023-08-01T02:11:48;99168.09;;;16.61;100.00
54512;BME280;40419;47.438;19.026;2023-08-01T02:14:16;99171.97;;;16.65;100.00
54512;BME280;40419;47.438;19.026;2023-08-01T02:16:44;99163.34;;;16.84;100.00
54512;BME280;40419;47.438;19.026;2023-08-01T02:19:09;99164.97;;;16.80;100.00
54512;BME280;40419;47.438;19.026;2023-08-01T02:21:37;99164.38;;;16.73;100.00
54512;BME280;40419;47.438;19.026;2023-08-01T02:24:05;99166.63;;;16.81;100.00
54512;BME280;40419;47.438;19.026;2023-08-01T02:26:32;99161.31;;;16.69;100.00
54512;BME280;40419;47.438;19.026;2023-08-01T02:29:02;99157.25;;;16.72;100.00
54512;BME280;40419;47.438;19.026;2023-08-01T02:31:31;99161.84;;;16.66;100.00
54512;BME280;40419;47.438;19.026;2023-08-01T02:34:01;99151.94;;;16.60;100.00
54512;BME280;40419;47.438;19.026;2023-08-01T02:36:29;99151.13;;;16.59;100.00
54512;BME280;40419;47.438;19.026;2023-08-01T02:38:55;99152.41;;;16.24;100.00
54512;BME280;40419;47.438;19.026;2023-08-01T02:41:22;99159.78;;;16.51;100.00
54512;BME280;40419;47.438;19.026;2023-08-01T02:43:48;99154.38;;;16.56;100.00
54512;BME280;40419;47.438;19.026;2023-08-01T02:46:16;99156.75;;;16.47;100.00
54512;BME280;40419;47.438;19.026;2023-08-01T02:48:44;99152.06;;;16.43;100.00
54512;BME280;40419;47.438;19.026;2023-08-01T02:51:11;99155.47;;;16.55;100.00
54512;BME280;40419;47.438;19.026;2023-08-01T02:53:39;99154.91;;;16.53;100.00
54512;BME280;40419;47.438;19.026;2023-08-01T02:56:07;99156.75;;;16.47;100.00
54512;BME280;40419;47.438;19.026;2023-08-01T02:58:37;99151.56;;;16.46;100.00
54512;BME280;40419;47.438;19.026;2023-08-01T03:01:09;99148.56;;;16.20;100.00
54512;BME280;40419;47.438;19.026;2023-08-01T03:03:38;99148.72;;;16.08;100.00
54512;BME280;40419;47.438;19.026;2023-08-01T03:06:04;99147.59;;;16.32;100.00
54512;BME280;40419;47.438;19.026;2023-08-01T03:08:30;99150.19;;;16.48;100.00
54512;BME280;40419;47.438;19.026;2023-08-01T03:10:55;99142.31;;;16.52;100.00
54512;BME280;40419;47.438;19.026;2023-08-01T03:13:24;99147.16;;;16.45;100.00
54512;BME280;40419;47.438;19.026;2023-08-01T03:15:49;99143.47;;;16.56;100.00
54512;BME280;40419;47.438;19.026;2023-08-01T03:18:17;99142.84;;;16.49;100.00
54512;BME280;40419;47.438;19.026;2023-08-01T03:20:43;99141.50;;;16.52;100.00
54512;BME280;40419;47.438;19.026;2023-08-01T03:23:08;99144.19;;;16.46;100.00
54512;BME280;40419;47.438;19.026;2023-08-01T03:25:34;99143.28;;;16.41;100.00
54512;BME280;40419;47.438;19.026;2023-08-01T03:28:00;99145.72;;;16.37;100.00
54512;BME280;40419;47.438;19.026;2023-08-01T03:30:27;99143.97;;;16.53;100.00
54512;BME280;40419;47.438;19.026;2023-08-01T03:32:54;99133.00;;;16.48;100.00
54512;BME280;40419;47.438;19.026;2023-08-01T03:35:24;99135.19;;;16.51;100.00
54512;BME280;40419;47.438;19.026;2023-08-01T03:37:52;99141.19;;;16.48;100.00
54512;BME280;40419;47.438;19.026;2023-08-01T03:40:17;99138.84;;;16.62;100.00
54512;BME280;40419;47.438;19.026;2023-08-01T03:42:45;99129.84;;;16.66;100.00
54512;BME280;40419;47.438;19.026;2023-08-01T03:45:13;99138.66;;;16.74;100.00
54512;BME280;40419;47.438;19.026;2023-08-01T03:47:38;99132.00;;;16.92;100.00
54512;BME280;40419;47.438;19.026;2023-08-01T03:50:06;99128.47;;;16.96;100.00
54512;BME280;40419;47.438;19.026;2023-08-01T03:52:34;99123.97;;;17.17;100.00
54512;BME280;40419;47.438;19.026;2023-08-01T03:55:01;99125.50;;;17.46;100.00
54512;BME280;40419;47.438;19.026;2023-08-01T03:57:29;99127.84;;;17.85;100.00
54512;BME280;40419;47.438;19.026;2023-08-01T03:59:55;99129.47;;;17.81;100.00
54512;BME280;40419;47.438;19.026;2023-08-01T04:02:23;99135.09;;;17.53;100.00
54512;BME280;40419;47.438;19.026;2023-08-01T04:04:51;99126.34;;;17.51;100.00
54512;BME280;40419;47.438;19.026;2023-08-01T04:07:18;99131.78;;;17.41;100.00
54512;BME280;40419;47.438;19.026;2023-08-01T04:09:46;99123.56;;;17.46;100.00
54512;BME280;40419;47.438;19.026;2023-08-01T04:12:14;99120.91;;;17.62;100.00
54512;BME280;40419;47.438;19.026;2023-08-01T04:14:41;99132.75;;;17.83;100.00
54512;BME280;40419;47.438;19.026;2023-08-01T04:17:10;99140.81;;;18.00;100.00
54512;BME280;40419;47.438;19.026;2023-08-01T04:19:35;99123.56;;;18.04;100.00
54512;BME280;40419;47.438;19.026;2023-08-01T04:22:05;99124.94;;;18.12;100.00
54512;BME280;40419;47.438;19.026;2023-08-01T04:24:31;99134.81;;;18.18;100.00
54512;BME280;40419;47.438;19.026;2023-08-01T04:26:59;99129.41;;;17.70;100.00
54512;BME280;40419;47.438;19.026;2023-08-01T04:29:24;99122.88;;;17.77;100.00
54512;BME280;40419;47.438;19.026;2023-08-01T04:31:52;99116.84;;;17.80;100.00
54512;BME280;40419;47.438;19.026;2023-08-01T04:34:20;99115.78;;;17.81;100.00
54512;BME280;40419;47.438;19.026;2023-08-01T04:36:45;99114.91;;;17.65;100.00
54512;BME280;40419;47.438;19.026;2023-08-01T04:39:13;99124.53;;;17.83;100.00
54512;BME280;40419;47.438;19.026;2023-08-01T04:41:41;99126.69;;;17.65;100.00
54512;BME280;40419;47.438;19.026;2023-08-01T04:44:09;99123.94;;;17.70;100.00
54512;BME280;40419;47.438;19.026;2023-08-01T04:46:34;99123.03;;;17.44;100.00
54512;BME280;40419;47.438;19.026;2023-08-01T04:49:00;99122.81;;;17.56;100.00
54512;BME280;40419;47.438;19.026;2023-08-01T04:51:28;99117.41;;;17.77;100.00
54512;BME280;40419;47.438;19.026;2023-08-01T04:53:53;99113.47;;;18.26;100.00
54512;BME280;40419;47.438;19.026;2023-08-01T04:56:19;99117.84;;;18.32;99.09
54512;BME280;40419;47.438;19.026;2023-08-01T04:58:49;99110.94;;;18.09;100.00
54512;BME280;40419;47.438;19.026;2023-08-01T05:01:14;99111.25;;;18.17;100.00
54512;BME280;40419;47.438;19.026;2023-08-01T05:03:42;99114.28;;;18.26;100.00
54512;BME280;40419;47.438;19.026;2023-08-01T05:06:15;99099.19;;;18.18;100.00
54512;BME280;40419;47.438;19.026;2023-08-01T05:08:43;99104.69;;;18.18;100.00
54512;BME280;40419;47.438;19.026;2023-08-01T05:11:11;99108.53;;;18.33;100.00
54512;BME280;40419;47.438;19.026;2023-08-01T05:13:36;99098.91;;;18.25;100.00
54512;BME280;40419;47.438;19.026;2023-08-01T05:16:02;99108.25;;;18.45;100.00
54512;BME280;40419;47.438;19.026;2023-08-01T05:18:28;99103.88;;;18.49;100.00
54512;BME280;40419;47.438;19.026;2023-08-01T05:20:54;99108.25;;;18.70;99.61
54512;BME280;40419;47.438;19.026;2023-08-01T05:23:22;99110.47;;;18.68;100.00
54512;BME280;40419;47.438;19.026;2023-08-01T05:25:47;99107.97;;;18.31;100.00
54512;BME280;40419;47.438;19.026;2023-08-01T05:28:13;99115.69;;;18.65;100.00
54512;BME280;40419;47.438;19.026;2023-08-01T05:30:42;99115.13;;;18.73;99.87
54512;BME280;40419;47.438;19.026;2023-08-01T05:33:07;99111.84;;;18.81;99.17
54512;BME280;40419;47.438;19.026;2023-08-01T05:35:35;99103.34;;;18.93;99.24
54512;BME280;40419;47.438;19.026;2023-08-01T05:38:03;99097.22;;;19.22;98.16
54512;BME280;40419;47.438;19.026;2023-08-01T05:40:29;99110.63;;;19.49;98.08
54512;BME280;40419;47.438;19.026;2023-08-01T05:42:56;99101.75;;;19.68;97.35
54512;BME280;40419;47.438;19.026;2023-08-01T05:45:22;99107.16;;;19.93;96.23
54512;BME280;40419;47.438;19.026;2023-08-01T05:47:49;99101.28;;;20.10;95.39
54512;BME280;40419;47.438;19.026;2023-08-01T05:50:15;99105.72;;;20.01;96.08
54512;BME280;40419;47.438;19.026;2023-08-01T05:52:45;99105.13;;;20.09;94.24
54512;BME280;40419;47.438;19.026;2023-08-01T05:55:13;99100.31;;;19.86;94.29
54512;BME280;40419;47.438;19.026;2023-08-01T05:57:43;99104.88;;;20.45;91.27
54512;BME280;40419;47.438;19.026;2023-08-01T06:00:09;99108.25;;;20.32;93.97
54512;BME280;40419;47.438;19.026;2023-08-01T06:02:40;99101.38;;;20.74;92.03
54512;BME280;40419;47.438;19.026;2023-08-01T06:05:06;99110.09;;;20.86;90.12
54512;BME280;40419;47.438;19.026;2023-08-01T06:07:32;99106.88;;;21.03;89.89
54512;BME280;40419;47.438;19.026;2023-08-01T06:10:02;99102.47;;;21.32;88.49
54512;BME280;40419;47.438;19.026;2023-08-01T06:12:28;99116.97;;;21.37;85.74
54512;BME280;40419;47.438;19.026;2023-08-01T06:14:58;99111.31;;;21.53;87.09
54512;BME280;40419;47.438;19.026;2023-08-01T06:17:23;99106.06;;;21.56;84.54
54512;BME280;40419;47.438;19.026;2023-08-01T06:19:49;99100.63;;;21.46;87.23
54512;BME280;40419;47.438;19.026;2023-08-01T06:22:17;99103.53;;;21.60;88.13
54512;BME280;40419;47.438;19.026;2023-08-01T06:24:43;99103.63;;;21.74;83.99
54512;BME280;40419;47.438;19.026;2023-08-01T06:27:10;99097.38;;;21.87;83.64
54512;BME280;40419;47.438;19.026;2023-08-01T06:29:38;99106.94;;;22.14;83.81
54512;BME280;40419;47.438;19.026;2023-08-01T06:32:11;99092.66;;;22.12;81.46
54512;BME280;40419;47.438;19.026;2023-08-01T06:34:38;99102.84;;;22.30;81.75
54512;BME280;40419;47.438;19.026;2023-08-01T06:37:06;99105.22;;;22.18;83.29
54512;BME280;40419;47.438;19.026;2023-08-01T06:39:37;99100.47;;;22.24;82.03
54512;BME280;40419;47.438;19.026;2023-08-01T06:42:08;99097.09;;;22.46;81.81
54512;BME280;40419;47.438;19.026;2023-08-01T06:44:33;99089.44;;;22.43;81.42
54512;BME280;40419;47.438;19.026;2023-08-01T06:47:02;99098.69;;;22.66;80.34
54512;BME280;40419;47.438;19.026;2023-08-01T06:49:28;99092.47;;;22.60;81.77
54512;BME280;40419;47.438;19.026;2023-08-01T06:51:56;99091.75;;;22.69;81.50
54512;BME280;40419;47.438;19.026;2023-08-01T06:54:23;99092.03;;;22.86;81.72
54512;BME280;40419;47.438;19.026;2023-08-01T06:56:49;99083.34;;;23.07;78.61
54512;BME280;40419;47.438;19.026;2023-08-01T06:59:14;99082.53;;;23.06;78.58
54512;BME280;40419;47.438;19.026;2023-08-01T07:04:11;99075.50;;;23.00;78.61
54512;BME280;40419;47.438;19.026;2023-08-01T07:06:36;99080.75;;;23.15;78.15
54512;BME280;40419;47.438;19.026;2023-08-01T07:09:02;99081.59;;;23.16;78.83
54512;BME280;40419;47.438;19.026;2023-08-01T07:11:33;99083.47;;;23.01;80.24
54512;BME280;40419;47.438;19.026;2023-08-01T07:14:06;99089.75;;;23.21;78.06
54512;BME280;40419;47.438;19.026;2023-08-01T07:16:31;99083.09;;;23.50;76.66
54512;BME280;40419;47.438;19.026;2023-08-01T07:19:00;99075.31;;;23.66;77.83
54512;BME280;40419;47.438;19.026;2023-08-01T07:21:31;99078.06;;;23.80;76.60
54512;BME280;40419;47.438;19.026;2023-08-01T07:23:56;99074.09;;;23.44;74.89
54512;BME280;40419;47.438;19.026;2023-08-01T07:26:24;99073.78;;;23.87;72.29
54512;BME280;40419;47.438;19.026;2023-08-01T07:28:55;99063.25;;;24.12;73.83
54512;BME280;40419;47.438;19.026;2023-08-01T07:31:26;99073.03;;;24.32;72.70
54512;BME280;40419;47.438;19.026;2023-08-01T07:33:51;99071.22;;;24.14;69.61
54512;BME280;40419;47.438;19.026;2023-08-01T07:36:17;99068.78;;;24.57;70.29
54512;BME280;40419;47.438;19.026;2023-08-01T07:38:42;99064.00;;;24.63;65.95
54512;BME280;40419;47.438;19.026;2023-08-01T07:41:10;99061.13;;;24.54;68.29
54512;BME280;40419;47.438;19.026;2023-08-01T07:43:40;99062.97;;;24.59;68.51
54512;BME280;40419;47.438;19.026;2023-08-01T07:46:06;99051.72;;;24.78;67.53
54512;BME280;40419;47.438;19.026;2023-08-01T07:48:34;99058.16;;;24.96;65.10
54512;BME280;40419;47.438;19.026;2023-08-01T07:51:00;99055.59;;;25.08;64.36
54512;BME280;40419;47.438;19.026;2023-08-01T07:53:26;99052.66;;;25.05;65.53
54512;BME280;40419;47.438;19.026;2023-08-01T07:55:59;99047.41;;;25.35;65.49
54512;BME280;40419;47.438;19.026;2023-08-01T07:58:29;99050.34;;;25.29;63.52
54512;BME280;40419;47.438;19.026;2023-08-01T08:01:02;99036.25;;;25.17;66.61
54512;BME280;40419;47.438;19.026;2023-08-01T08:03:30;99042.09;;;25.47;62.68
54512;BME280;40419;47.438;19.026;2023-08-01T08:05:58;99041.78;;;25.66;64.65
54512;BME280;40419;47.438;19.026;2023-08-01T08:08:28;99034.72;;;25.42;63.70
54512;BME280;40419;47.438;19.026;2023-08-01T08:10:54;99031.00;;;25.56;62.48
54512;BME280;40419;47.438;19.026;2023-08-01T08:13:19;99031.06;;;25.24;62.24
54512;BME280;40419;47.438;19.026;2023-08-01T08:15:48;99030.19;;;25.15;63.96
54512;BME280;40419;47.438;19.026;2023-08-01T08:18:13;99037.97;;;25.36;60.31
54512;BME280;40419;47.438;19.026;2023-08-01T08:20:44;99034.94;;;25.15;62.63
54512;BME280;40419;47.438;19.026;2023-08-01T08:23:12;99039.88;;;25.26;62.16
54512;BME280;40419;47.438;19.026;2023-08-01T08:25:42;99037.06;;;25.58;63.22
54512;BME280;40419;47.438;19.026;2023-08-01T08:28:11;99040.75;;;25.44;62.93
54512;BME280;40419;47.438;19.026;2023-08-01T08:30:40;99027.63;;;25.19;62.10
54512;BME280;40419;47.438;19.026;2023-08-01T08:33:05;99030.84;;;25.61;62.53
54512;BME280;40419;47.438;19.026;2023-08-01T08:35:33;99027.75;;;25.80;61.06
54512;BME280;40419;47.438;19.026;2023-08-01T08:38:05;99030.59;;;26.06;62.52
54512;BME280;40419;47.438;19.026;2023-08-01T08:40:32;99022.94;;;26.12;58.37
54512;BME280;40419;47.438;19.026;2023-08-01T08:43:02;99026.34;;;26.17;58.13
54512;BME280;40419;47.438;19.026;2023-08-01T08:45:34;99018.16;;;26.30;58.22
54512;BME280;40419;47.438;19.026;2023-08-01T08:48:11;99017.22;;;26.17;58.03
54512;BME280;40419;47.438;19.026;2023-08-01T08:50:41;99024.03;;;26.46;58.57
54512;BME280;40419;47.438;19.026;2023-08-01T08:53:08;99024.03;;;26.28;58.60
54512;BME280;40419;47.438;19.026;2023-08-01T08:55:39;99024.66;;;26.60;57.75
54512;BME280;40419;47.438;19.026;2023-08-01T08:58:05;99017.78;;;26.75;56.84
54512;BME280;40419;47.438;19.026;2023-08-01T09:00:40;99018.19;;;26.95;55.46
54512;BME280;40419;47.438;19.026;2023-08-01T09:03:06;99016.28;;;26.86;54.25
54512;BME280;40419;47.438;19.026;2023-08-01T09:05:44;99013.53;;;27.16;53.83
54512;BME280;40419;47.438;19.026;2023-08-01T09:08:18;99000.41;;;27.34;52.93
54512;BME280;40419;47.438;19.026;2023-08-01T09:10:44;99001.72;;;27.28;51.37
54512;BME280;40419;47.438;19.026;2023-08-01T09:13:10;98997.13;;;26.94;50.87
54512;BME280;40419;47.438;19.026;2023-08-01T09:15:37;98990.41;;;26.39;52.52
54512;BME280;40419;47.438;19.026;2023-08-01T09:18:06;98991.84;;;26.71;52.08
54512;BME280;40419;47.438;19.026;2023-08-01T09:20:48;98982.41;;;26.93;52.75
54512;BME280;40419;47.438;19.026;2023-08-01T09:23:17;98983.66;;;26.75;50.61
54512;BME280;40419;47.438;19.026;2023-08-01T09:25:44;98976.41;;;27.21;51.46
54512;BME280;40419;47.438;19.026;2023-08-01T09:28:21;98967.75;;;27.52;51.75
54512;BME280;40419;47.438;19.026;2023-08-01T09:30:53;98972.41;;;27.61;47.82
54512;BME280;40419;47.438;19.026;2023-08-01T09:33:23;98955.13;;;27.76;47.99
54512;BME280;40419;47.438;19.026;2023-08-01T09:35:52;98958.53;;;27.61;49.25
54512;BME280;40419;47.438;19.026;2023-08-01T09:38:22;98958.19;;;27.83;48.23
54512;BME280;40419;47.438;19.026;2023-08-01T09:40:54;98955.28;;;28.01;48.87
54512;BME280;40419;47.438;19.026;2023-08-01T09:43:20;98959.94;;;28.09;46.92
54512;BME280;40419;47.438;19.026;2023-08-01T09:45:52;98956.19;;;28.05;46.70
54512;BME280;40419;47.438;19.026;2023-08-01T09:48:24;98949.38;;;27.81;47.10
54512;BME280;40419;47.438;19.026;2023-08-01T09:50:50;98951.25;;;27.68;48.03
54512;BME280;40419;47.438;19.026;2023-08-01T09:53:16;98951.41;;;27.51;48.08
54512;BME280;40419;47.438;19.026;2023-08-01T09:55:45;98950.84;;;27.36;51.41
54512;BME280;40419;47.438;19.026;2023-08-01T09:58:21;98943.06;;;27.21;50.22
54512;BME280;40419;47.438;19.026;2023-08-01T10:00:47;98942.44;;;27.45;50.16
54512;BME280;40419;47.438;19.026;2023-08-01T10:03:18;98937.69;;;27.46;49.58
54512;BME280;40419;47.438;19.026;2023-08-01T10:05:46;98933.84;;;27.59;47.76
54512;BME280;40419;47.438;19.026;2023-08-01T10:08:12;98927.34;;;27.88;46.71
54512;BME280;40419;47.438;19.026;2023-08-01T10:10:38;98928.88;;;28.07;47.83
54512;BME280;40419;47.438;19.026;2023-08-01T10:13:07;98913.19;;;28.36;46.09
54512;BME280;40419;47.438;19.026;2023-08-01T10:15:35;98920.94;;;28.42;47.05
54512;BME280;40419;47.438;19.026;2023-08-01T10:18:01;98912.53;;;28.63;45.42
54512;BME280;40419;47.438;19.026;2023-08-01T10:20:32;98907.66;;;28.60;45.59
54512;BME280;40419;47.438;19.026;2023-08-01T10:22:59;98907.38;;;28.41;47.03
54512;BME280;40419;47.438;19.026;2023-08-01T10:25:29;98907.53;;;28.57;44.69
54512;BME280;40419;47.438;19.026;2023-08-01T10:28:02;98902.75;;;28.57;45.31
54512;BME280;40419;47.438;19.026;2023-08-01T10:30:28;98889.72;;;28.37;47.07
54512;BME280;40419;47.438;19.026;2023-08-01T10:32:58;98888.38;;;28.55;47.18
54512;BME280;40419;47.438;19.026;2023-08-01T10:35:39;98891.63;;;28.57;44.25
54512;BME280;40419;47.438;19.026;2023-08-01T10:38:11;98890.22;;;28.51;45.38
54512;BME280;40419;47.438;19.026;2023-08-01T10:40:43;98881.97;;;28.42;45.73
54512;BME280;40419;47.438;19.026;2023-08-01T10:43:20;98890.22;;;28.39;45.75
54512;BME280;40419;47.438;19.026;2023-08-01T10:45:46;98877.41;;;28.13;44.74
54512;BME280;40419;47.438;19.026;2023-08-01T10:48:15;98880.47;;;28.20;45.43
54512;BME280;40419;47.438;19.026;2023-08-01T10:50:40;98876.66;;;28.37;43.75
54512;BME280;40419;47.438;19.026;2023-08-01T10:53:08;98874.69;;;28.50;45.26
54512;BME280;40419;47.438;19.026;2023-08-01T10:55:41;98873.63;;;28.55;42.83
54512;BME280;40419;47.438;19.026;2023-08-01T10:58:10;98870.72;;;28.26;43.69
54512;BME280;40419;47.438;19.026;2023-08-01T11:00:38;98865.75;;;28.44;45.03
54512;BME280;40419;47.438;19.026;2023-08-01T11:03:04;98862.16;;;28.56;43.19
54512;BME280;40419;47.438;19.026;2023-08-01T11:05:32;98857.16;;;28.50;45.07
54512;BME280;40419;47.438;19.026;2023-08-01T11:08:02;98841.84;;;28.19;43.88
54512;BME280;40419;47.438;19.026;2023-08-01T11:10:30;98841.22;;;28.01;44.66
54512;BME280;40419;47.438;19.026;2023-08-01T11:12:59;98845.69;;;28.39;44.92
54512;BME280;40419;47.438;19.026;2023-08-01T11:15:25;98846.03;;;28.37;42.11
54512;BME280;40419;47.438;19.026;2023-08-01T11:17:55;98852.03;;;28.27;43.30
54512;BME280;40419;47.438;19.026;2023-08-01T11:20:24;98846.13;;;28.16;43.45
54512;BME280;40419;47.438;19.026;2023-08-01T11:25:31;98833.59;;;28.22;42.55
54512;BME280;40419;47.438;19.026;2023-08-01T11:28:01;98830.13;;;28.25;43.63
54512;BME280;40419;47.438;19.026;2023-08-01T11:30:31;98827.53;;;28.08;41.64
54512;BME280;40419;47.438;19.026;2023-08-01T11:32:58;98822.28;;;27.94;41.73
54512;BME280;40419;47.438;19.026;2023-08-01T11:35:30;98822.84;;;27.87;43.33
54512;BME280;40419;47.438;19.026;2023-08-01T11:37:56;98814.38;;;27.84;43.11
54512;BME280;40419;47.438;19.026;2023-08-01T11:40:25;98811.00;;;28.24;40.55
54512;BME280;40419;47.438;19.026;2023-08-01T11:42:57;98803.09;;;28.26;42.43
54512;BME280;40419;47.438;19.026;2023-08-01T11:45:23;98802.88;;;28.19;43.26
54512;BME280;40419;47.438;19.026;2023-08-01T11:47:49;98797.44;;;28.35;42.80
54512;BME280;40419;47.438;19.026;2023-08-01T11:50:23;98791.50;;;28.11;42.84
54512;BME280;40419;47.438;19.026;2023-08-01T11:52:49;98796.28;;;28.23;43.78
54512;BME280;40419;47.438;19.026;2023-08-01T11:55:23;98792.22;;;28.33;45.36
54512;BME280;40419;47.438;19.026;2023-08-01T11:57:53;98785.50;;;28.22;43.76
54512;BME280;40419;47.438;19.026;2023-08-01T12:00:27;98769.16;;;28.33;43.17
54512;BME280;40419;47.438;19.026;2023-08-01T12:03:07;98776.66;;;28.07;43.13
54512;BME280;40419;47.438;19.026;2023-08-01T12:05:33;98764.94;;;28.14;44.04
54512;BME280;40419;47.438;19.026;2023-08-01T12:08:12;98767.88;;;28.18;42.54
54512;BME280;40419;47.438;19.026;2023-08-01T12:10:39;98758.81;;;28.08;42.02
54512;BME280;40419;47.438;19.026;2023-08-01T12:13:19;98753.72;;;28.23;42.74
54512;BME280;40419;47.438;19.026;2023-08-01T12:15:44;98757.88;;;28.17;42.76
54512;BME280;40419;47.438;19.026;2023-08-01T12:18:22;98750.31;;;27.92;43.14
54512;BME280;40419;47.438;19.026;2023-08-01T12:20:51;98729.28;;;28.04;43.89
54512;BME280;40419;47.438;19.026;2023-08-01T12:23:20;98727.13;;;27.88;42.74
54512;BME280;40419;47.438;19.026;2023-08-01T12:25:48;98729.72;;;28.06;41.50
54512;BME280;40419;47.438;19.026;2023-08-01T12:28:17;98741.19;;;28.17;41.31
54512;BME280;40419;47.438;19.026;2023-08-01T12:30:45;98734.75;;;27.79;39.90
54512;BME280;40419;47.438;19.026;2023-08-01T12:33:11;98726.66;;;27.86;43.31
54512;BME280;40419;47.438;19.026;2023-08-01T12:35:42;98721.19;;;27.77;42.10
54512;BME280;40419;47.438;19.026;2023-08-01T12:38:09;98717.59;;;27.65;42.31
54512;BME280;40419;47.438;19.026;2023-08-01T12:40:34;98720.16;;;27.82;42.16
54512;BME280;40419;47.438;19.026;2023-08-01T12:43:03;98714.16;;;27.92;44.06
54512;BME280;40419;47.438;19.026;2023-08-01T12:45:32;98708.84;;;28.00;41.91
54512;BME280;40419;47.438;19.026;2023-08-01T12:47:57;98708.28;;;28.19;42.06
54512;BME280;40419;47.438;19.026;2023-08-01T12:50:25;98710.59;;;28.17;42.25
54512;BME280;40419;47.438;19.026;2023-08-01T12:52:53;98707.00;;;28.04;41.58
54512;BME280;40419;47.438;19.026;2023-08-01T12:55:24;98695.41;;;28.14;42.63